createdAt,value
2018-08-10T00:00:16.737Z,101122.10
2018-08-10T00:02:46.047Z,101119.67
2018-08-10T00:05:16.265Z,101119.47
2018-08-10T00:07:45.249Z,101131.70
2018-08-10T00:10:15.079Z,101142.22
2018-08-10T00:12:44.453Z,101140.17
2018-08-10T00:15:14.018Z,101143.36
2018-08-10T00:17:43.170Z,101153.28
2018-08-10T00:20:14.870Z,101153.73
2018-08-10T00:22:44.886Z,101153.08
2018-08-10T00:25:16.722Z,101163.28
2018-08-10T00:27:45.986Z,101168.36
2018-08-10T00:30:17.987Z,101177.09
2018-08-10T00:32:48.290Z,101181.11
2018-08-10T00:35:17.667Z,101174.58
2018-08-10T00:37:47.932Z,101179.05
2018-08-10T00:40:25.079Z,101185.73
2018-08-10T00:42:54.266Z,101195.55
2018-08-10T00:45:23.339Z,101199.36
2018-08-10T00:47:53.086Z,101206.59
2018-08-10T00:50:22.182Z,101203.41
2018-08-10T00:52:51.250Z,101216.47
2018-08-10T00:55:20.389Z,101220.83
2018-08-10T00:57:50.013Z,101221.84
2018-08-10T01:00:21.357Z,101228.05
2018-08-10T01:02:51.576Z,101227.39
2018-08-10T01:05:20.877Z,101232.72
2018-08-10T01:07:50.156Z,101233.89
2018-08-10T01:10:20.543Z,101244.99
2018-08-10T01:12:49.793Z,101251.70
2018-08-10T01:15:53.311Z,101250.52
2018-08-10T01:18:22.596Z,101255.01
2018-08-10T01:20:52.092Z,101266.94
2018-08-10T01:23:21.781Z,101267.95
2018-08-10T01:25:51.354Z,101276.30
2018-08-10T01:28:22.099Z,101275.60
2018-08-10T01:30:51.494Z,101271.90
2018-08-10T01:33:21.036Z,101282.67
2018-08-10T01:35:50.206Z,101284.98
2018-08-10T01:38:20.072Z,101283.89
2018-08-10T01:40:49.124Z,101289.42
2018-08-10T01:43:18.271Z,101291.19
2018-08-10T01:45:47.624Z,101296.41
2018-08-10T01:48:16.610Z,101295.15
2018-08-10T01:50:46.205Z,101300.22
2018-08-10T01:53:15.623Z,101301.08
2018-08-10T01:55:44.558Z,101299.02
2018-08-10T01:58:13.808Z,101298.00
2018-08-10T02:00:42.921Z,101298.08
2018-08-10T02:03:12.968Z,101301.75
2018-08-10T02:05:41.944Z,101307.79
2018-08-10T02:08:11.288Z,101306.42
2018-08-10T02:10:40.517Z,101307.94
2018-08-10T02:13:09.509Z,101309.44
2018-08-10T02:15:38.734Z,101318.52
2018-08-10T02:18:08.002Z,101315.19
2018-08-10T02:20:37.555Z,101327.41
2018-08-10T02:23:06.603Z,101324.05
2018-08-10T02:25:35.738Z,101322.02
2018-08-10T02:28:04.873Z,101326.25
2018-08-10T02:30:34.110Z,101325.77
2018-08-10T02:33:03.195Z,101332.45
2018-08-10T02:35:32.318Z,101334.30
2018-08-10T02:38:01.402Z,101341.16
2018-08-10T02:40:31.135Z,101346.36
2018-08-10T02:43:00.643Z,101352.70
2018-08-10T02:45:29.926Z,101359.06
2018-08-10T02:47:58.988Z,101352.14
2018-08-10T02:50:28.529Z,101368.33
2018-08-10T02:52:57.797Z,101369.00
2018-08-10T02:55:27.127Z,101377.52
2018-08-10T02:57:56.199Z,101375.94
2018-08-10T03:00:25.520Z,101377.13
2018-08-10T03:02:54.638Z,101379.74
2018-08-10T03:05:23.974Z,101381.45
2018-08-10T03:07:53.227Z,101385.39
2018-08-10T03:10:22.734Z,101390.59
2018-08-10T03:12:52.208Z,101385.70
2018-08-10T03:15:21.400Z,101390.36
2018-08-10T03:17:50.624Z,101392.74
2018-08-10T03:20:20.616Z,101394.90
2018-08-10T03:22:50.287Z,101391.35
2018-08-10T03:25:19.620Z,101394.11
2018-08-10T03:27:49.284Z,101392.10
2018-08-10T03:30:18.329Z,101395.57
2018-08-10T03:32:47.440Z,101398.25
2018-08-10T03:35:16.523Z,101396.50
2018-08-10T03:37:45.671Z,101400.03
2018-08-10T03:40:16.206Z,101395.64
2018-08-10T03:42:45.512Z,101400.63
2018-08-10T03:45:14.770Z,101402.59
2018-08-10T03:47:43.874Z,101400.28
2018-08-10T03:50:14.405Z,101403.64
2018-08-10T03:52:44.329Z,101404.44
2018-08-10T03:55:13.694Z,101404.89
2018-08-10T03:57:42.898Z,101407.16
2018-08-10T04:00:14.155Z,101406.87
2018-08-10T04:02:44.061Z,101407.80
2018-08-10T04:05:14.065Z,101405.41
2018-08-10T04:07:43.227Z,101416.00
2018-08-10T04:10:12.493Z,101417.33
2018-08-10T04:12:41.590Z,101418.47
2018-08-10T04:15:13.763Z,101426.12
2018-08-10T04:17:43.983Z,101425.30
2018-08-10T04:20:13.422Z,101429.95
2018-08-10T04:22:43.170Z,101430.70
2018-08-10T04:25:12.576Z,101428.51
2018-08-10T04:27:41.872Z,101429.95
2018-08-10T04:30:12.202Z,101419.42
2018-08-10T04:32:41.938Z,101433.55
2018-08-10T04:35:11.255Z,101432.45
2018-08-10T04:37:40.478Z,101428.41
2018-08-10T04:40:14.046Z,101438.34
2018-08-10T04:42:43.363Z,101443.78
2018-08-10T04:45:13.022Z,101452.02
2018-08-10T04:47:49.218Z,101447.58
2018-08-10T04:50:19.339Z,101455.99
2018-08-10T04:52:48.539Z,101456.09
2018-08-10T04:55:17.509Z,101447.39
2018-08-10T04:57:46.566Z,101454.96
2018-08-10T05:00:15.698Z,101451.34
2018-08-10T05:02:45.187Z,101450.34
2018-08-10T05:05:14.473Z,101455.98
2018-08-10T05:07:43.722Z,101457.66
2018-08-10T05:10:13.503Z,101457.97
2018-08-10T05:12:42.586Z,101460.53
2018-08-10T05:15:12.431Z,101462.76
2018-08-10T05:17:43.071Z,101460.49
2018-08-10T05:20:12.854Z,101460.37
2018-08-10T05:22:42.520Z,101467.71
2018-08-10T05:25:11.794Z,101472.87
2018-08-10T05:27:41.311Z,101472.66
2018-08-10T05:30:11.354Z,101479.44
2018-08-10T05:32:41.581Z,101480.50
2018-08-10T05:35:11.656Z,101485.55
2018-08-10T05:37:40.928Z,101485.09
2018-08-10T05:40:10.857Z,101484.21
2018-08-10T05:42:40.078Z,101489.02
2018-08-10T05:45:09.567Z,101491.15
2018-08-10T05:47:38.974Z,101494.16
2018-08-10T05:50:08.463Z,101495.86
2018-08-10T05:52:37.813Z,101485.63
2018-08-10T05:55:07.392Z,101482.35
2018-08-10T05:57:37.003Z,101491.13
2018-08-10T06:00:07.390Z,101496.84
2018-08-10T06:02:37.076Z,101496.17
2018-08-10T06:05:07.057Z,101499.11
2018-08-10T06:07:36.688Z,101505.21
2018-08-10T06:10:07.741Z,101505.33
2018-08-10T06:12:37.265Z,101512.69
2018-08-10T06:15:08.299Z,101504.80
2018-08-10T06:17:37.510Z,101505.23
2018-08-10T06:20:08.190Z,101507.03
2018-08-10T06:22:37.534Z,101513.17
2018-08-10T06:25:07.414Z,101510.95
2018-08-10T06:27:37.468Z,101512.21
2018-08-10T06:30:09.434Z,101511.84
2018-08-10T06:32:39.475Z,101513.88
2018-08-10T06:35:08.638Z,101514.55
2018-08-10T06:37:38.487Z,101519.16
2018-08-10T06:40:07.942Z,101517.67
2018-08-10T06:42:37.522Z,101520.28
2018-08-10T06:45:07.035Z,101528.75
2018-08-10T06:47:36.270Z,101524.30
2018-08-10T06:50:06.043Z,101518.23
2018-08-10T06:52:34.902Z,101525.16
2018-08-10T06:55:04.687Z,101528.33
2018-08-10T06:57:34.328Z,101526.44
2018-08-10T07:00:03.414Z,101524.44
2018-08-10T07:02:32.446Z,101525.42
2018-08-10T07:05:01.427Z,101540.71
2018-08-10T07:07:31.317Z,101537.72
2018-08-10T07:10:00.374Z,101538.89
2018-08-10T07:12:29.738Z,101540.73
2018-08-10T07:14:58.791Z,101537.05
2018-08-10T07:17:28.493Z,101541.91
2018-08-10T07:19:57.391Z,101543.75
2018-08-10T07:22:26.658Z,101552.00
2018-08-10T07:24:56.149Z,101553.83
2018-08-10T07:27:25.310Z,101551.81
2018-08-10T07:29:54.945Z,101549.30
2018-08-10T07:32:24.127Z,101548.13
2018-08-10T07:34:53.367Z,101554.98
2018-08-10T07:37:22.469Z,101548.60
2018-08-10T07:39:51.598Z,101544.45
2018-08-10T07:42:20.671Z,101543.61
2018-08-10T07:44:49.727Z,101548.29
2018-08-10T07:47:18.848Z,101555.47
2018-08-10T07:49:47.923Z,101560.30
2018-08-10T07:52:16.899Z,101548.52
2018-08-10T07:54:46.117Z,101557.25
2018-08-10T07:57:15.810Z,101557.39
2018-08-10T07:59:45.356Z,101554.52
2018-08-10T08:02:14.471Z,101564.38
2018-08-10T08:04:43.899Z,101559.82
2018-08-10T08:07:13.310Z,101554.72
2018-08-10T08:09:43.021Z,101556.82
2018-08-10T08:12:12.522Z,101549.03
2018-08-10T08:14:41.769Z,101560.62
2018-08-10T08:17:11.050Z,101568.26
2018-08-10T08:19:40.206Z,101564.36
2018-08-10T08:22:15.153Z,101569.05
2018-08-10T08:24:45.751Z,101557.74
2018-08-10T08:27:16.784Z,101561.84
2018-08-10T08:29:46.837Z,101526.55
2018-08-10T08:32:18.607Z,101573.94
2018-08-10T08:34:47.678Z,101568.65
2018-08-10T08:37:17.166Z,101570.57
2018-08-10T08:39:57.263Z,101573.41
2018-08-10T08:42:26.408Z,101570.92
2018-08-10T08:46:05.565Z,101567.21
2018-08-10T08:48:42.184Z,101566.47
2018-08-10T08:51:14.519Z,101573.53
2018-08-10T08:53:43.647Z,101565.86
2018-08-10T08:56:14.858Z,101565.95
2018-08-10T08:58:45.408Z,101568.44
2018-08-10T09:01:15.181Z,101563.83
2018-08-10T09:04:20.774Z,101562.46
2018-08-10T09:06:50.539Z,101561.06
2018-08-10T09:09:30.674Z,101552.70
2018-08-10T09:12:00.037Z,101557.34
2018-08-10T09:14:40.239Z,101559.34
2018-08-10T09:17:10.274Z,101549.83
2018-08-10T09:19:40.494Z,101554.09
2018-08-10T09:22:09.920Z,101548.86
2018-08-10T09:24:39.551Z,101540.88
2018-08-10T09:27:08.691Z,101553.38
2018-08-10T09:29:38.182Z,101558.33
2018-08-10T09:32:07.906Z,101549.09
2018-08-10T09:34:36.868Z,101545.25
2018-08-10T09:37:06.934Z,101544.77
2018-08-10T09:39:36.034Z,101538.95
2018-08-10T09:42:05.692Z,101538.84
2018-08-10T09:44:35.400Z,101542.98
2018-08-10T09:47:05.583Z,101553.25
2018-08-10T09:49:40.168Z,101551.90
2018-08-10T09:52:09.688Z,101556.45
2018-08-10T09:55:24.658Z,101554.00
2018-08-10T09:57:59.902Z,101545.41
2018-08-10T10:00:34.546Z,101535.16
2018-08-10T10:03:09.098Z,101543.79
2018-08-10T10:05:38.947Z,101541.16
2018-08-10T10:08:08.160Z,101540.36
2018-08-10T10:10:37.454Z,101542.09
2018-08-10T10:13:06.530Z,101536.75
2018-08-10T10:15:35.844Z,101533.93
2018-08-10T10:18:06.837Z,101530.17
2018-08-10T10:20:35.867Z,101529.30
2018-08-10T10:23:05.581Z,101532.48
2018-08-10T10:25:35.006Z,101536.73
2018-08-10T10:28:04.679Z,101550.31
2018-08-10T10:30:33.934Z,101539.02
2018-08-10T10:33:03.222Z,101530.66
2018-08-10T10:35:32.502Z,101526.08
2018-08-10T10:38:02.014Z,101522.06
2018-08-10T10:40:31.067Z,101533.08
2018-08-10T10:43:00.862Z,101539.72
2018-08-10T10:45:29.855Z,101534.95
2018-08-10T10:47:58.996Z,101541.16
2018-08-10T10:50:27.937Z,101533.19
2018-08-10T10:52:57.390Z,101522.05
2018-08-10T10:55:26.923Z,101525.38
2018-08-10T10:57:56.360Z,101515.89
2018-08-10T11:00:25.477Z,101517.80
2018-08-10T11:02:54.917Z,101519.02
2018-08-10T11:05:23.873Z,101512.40
2018-08-10T11:07:52.971Z,101506.48
2018-08-10T11:10:22.045Z,101513.28
2018-08-10T11:12:51.179Z,101508.64
2018-08-10T11:15:20.526Z,101514.13
2018-08-10T11:17:49.819Z,101503.06
2018-08-10T11:20:19.071Z,101495.97
2018-08-10T11:22:48.167Z,101501.39
2018-08-10T11:25:17.274Z,101514.03
2018-08-10T11:27:46.411Z,101498.52
2018-08-10T11:30:15.683Z,101493.14
2018-08-10T11:32:44.791Z,101500.29
2018-08-10T11:35:13.873Z,101495.50
2018-08-10T11:37:43.495Z,101503.52
2018-08-10T11:40:14.319Z,101501.79
2018-08-10T11:42:44.093Z,101498.04
2018-08-10T11:45:15.241Z,101501.05
2018-08-10T11:47:44.451Z,101497.97
2018-08-10T11:50:13.969Z,101493.03
2018-08-10T11:52:43.241Z,101502.58
2018-08-10T11:55:13.636Z,101491.20
2018-08-10T11:57:43.614Z,101481.66
2018-08-10T12:00:14.643Z,101479.41
2018-08-10T12:02:44.517Z,101480.27
2018-08-10T12:05:14.918Z,101479.73
2018-08-10T12:07:44.132Z,101480.16
2018-08-10T12:10:13.256Z,101481.47
2018-08-10T12:12:42.198Z,101477.44
2018-08-10T12:15:13.358Z,101484.32
2018-08-10T12:17:42.982Z,101482.47
2018-08-10T12:20:11.986Z,101485.16
2018-08-10T12:22:42.342Z,101482.69
2018-08-10T12:25:11.886Z,101482.44
2018-08-10T12:27:40.992Z,101473.34
2018-08-10T12:30:12.537Z,101470.94
2018-08-10T12:32:42.285Z,101464.48
2018-08-10T12:35:11.953Z,101462.95
2018-08-10T12:37:41.522Z,101472.31
2018-08-10T12:40:11.129Z,101471.73
2018-08-10T12:42:40.766Z,101464.52
2018-08-10T12:45:09.828Z,101464.76
2018-08-10T12:47:39.336Z,101468.47
2018-08-10T12:50:09.371Z,101469.92
2018-08-10T12:52:38.732Z,101457.59
2018-08-10T12:55:08.702Z,101464.06
2018-08-10T12:57:38.228Z,101464.54
2018-08-10T13:00:10.560Z,101462.36
2018-08-10T13:02:40.227Z,101469.22
2018-08-10T13:05:09.978Z,101458.47
2018-08-10T13:07:39.281Z,101453.75
2018-08-10T13:10:12.092Z,101455.20
2018-08-10T13:12:41.362Z,101460.69
2018-08-10T13:15:12.439Z,101431.25
2018-08-10T13:17:41.559Z,101445.38
2018-08-10T13:20:12.930Z,101449.75
2018-08-10T13:22:42.189Z,101450.72
2018-08-10T13:25:12.107Z,101440.38
2018-08-10T13:27:41.765Z,101441.45
2018-08-10T13:30:12.577Z,101438.05
2018-08-10T13:32:41.657Z,101444.78
2018-08-10T13:35:10.805Z,101432.80
2018-08-10T13:37:39.834Z,101437.91
2018-08-10T13:40:09.423Z,101437.17
2018-08-10T13:42:38.717Z,101431.61
2018-08-10T13:45:10.657Z,101431.95
2018-08-10T13:47:39.702Z,101444.97
2018-08-10T13:50:11.131Z,101432.55
2018-08-10T13:52:40.371Z,101429.38
2018-08-10T13:55:11.804Z,101432.47
2018-08-10T13:57:40.758Z,101431.80
2018-08-10T14:00:14.062Z,101431.20
2018-08-10T14:02:43.699Z,101430.42
2018-08-10T14:05:13.120Z,101426.09
2018-08-10T14:07:42.623Z,101423.64
2018-08-10T14:10:13.223Z,101430.40
2018-08-10T14:12:42.348Z,101428.48
2018-08-10T14:15:12.394Z,101424.34
2018-08-10T14:17:42.619Z,101411.23
2018-08-10T14:20:13.104Z,101419.59
2018-08-10T14:22:42.622Z,101410.49
2018-08-10T14:25:12.353Z,101408.42
2018-08-10T14:27:41.343Z,101416.83
2018-08-10T14:30:13.685Z,101421.31
2018-08-10T14:32:43.083Z,101414.24
2018-08-10T14:35:13.683Z,101422.59
2018-08-10T14:37:43.158Z,101411.64
2018-08-10T14:40:13.526Z,101411.55
2018-08-10T14:42:43.591Z,101415.22
2018-08-10T14:45:14.265Z,101401.45
2018-08-10T14:47:43.398Z,101408.24
2018-08-10T14:50:14.015Z,101397.49
2018-08-10T14:52:43.294Z,101405.02
2018-08-10T14:55:14.662Z,101394.35
2018-08-10T14:57:43.911Z,101391.93
2018-08-10T15:00:19.293Z,101403.97
2018-08-10T15:02:48.965Z,101393.88
2018-08-10T15:05:18.482Z,101396.59
2018-08-10T15:07:48.003Z,101393.41
2018-08-10T15:10:17.906Z,101384.53
2018-08-10T15:12:47.976Z,101392.80
2018-08-10T15:15:18.536Z,101385.81
2018-08-10T15:17:48.131Z,101394.76
2018-08-10T15:20:19.421Z,101391.48
2018-08-10T15:22:48.554Z,101391.80
2018-08-10T15:25:17.641Z,101380.31
2018-08-10T15:27:46.742Z,101358.92
2018-08-10T15:30:18.309Z,101384.66
2018-08-10T15:32:47.383Z,101379.47
2018-08-10T15:35:17.531Z,101380.92
2018-08-10T15:37:47.201Z,101377.09
2018-08-10T15:40:18.651Z,101376.08
2018-08-10T15:42:47.919Z,101376.22
2018-08-10T15:45:17.976Z,101379.20
2018-08-10T15:47:47.521Z,101372.54
2018-08-10T15:50:17.018Z,101361.63
2018-08-10T15:52:46.611Z,101377.31
2018-08-10T15:55:16.160Z,101384.97
2018-08-10T15:57:45.318Z,101370.59
2018-08-10T16:00:18.309Z,101375.00
2018-08-10T16:02:48.060Z,101369.70
2018-08-10T16:05:17.763Z,101369.58
2018-08-10T16:07:47.019Z,101361.27
2018-08-10T16:10:16.342Z,101359.32
2018-08-10T16:12:45.599Z,101353.48
2018-08-10T16:15:16.066Z,101352.44
2018-08-10T16:17:45.249Z,101352.03
2018-08-10T16:20:16.814Z,101347.85
2018-08-10T16:22:45.922Z,101352.47
2018-08-10T16:25:15.176Z,101346.81
2018-08-10T16:27:44.726Z,101356.05
2018-08-10T16:30:15.671Z,101349.94
2018-08-10T16:32:45.783Z,101355.67
2018-08-10T16:35:15.993Z,101348.62
2018-08-10T16:37:46.630Z,101347.77
2018-08-10T16:40:17.394Z,101351.50
2018-08-10T16:42:46.669Z,101352.13
2018-08-10T16:45:16.135Z,101347.38
2018-08-10T16:47:45.238Z,101349.09
2018-08-10T16:50:17.008Z,101344.41
2018-08-10T16:52:46.695Z,101346.58
2018-08-10T16:55:18.487Z,101349.59
2018-08-10T16:57:48.503Z,101351.17
2018-08-10T17:00:19.730Z,101346.20
2018-08-10T17:02:49.144Z,101338.70
2018-08-10T17:05:18.369Z,101341.09
2018-08-10T17:07:47.645Z,101342.54
2018-08-10T17:10:16.722Z,101347.66
2018-08-10T17:12:46.348Z,101350.67
2018-08-10T17:15:18.590Z,101348.87
2018-08-10T17:17:48.434Z,101348.05
2018-08-10T17:20:18.546Z,101339.02
2018-08-10T17:22:47.495Z,101352.89
2018-08-10T17:25:19.594Z,101348.16
2018-08-10T17:27:48.640Z,101338.63
2018-08-10T17:30:19.360Z,101343.55
2018-08-10T17:32:48.615Z,101342.25
2018-08-10T17:35:18.166Z,101346.80
2018-08-10T17:37:47.826Z,101342.30
2018-08-10T17:40:16.975Z,101338.25
2018-08-10T17:42:46.222Z,101337.74
2018-08-10T17:45:17.017Z,101342.23
2018-08-10T17:47:46.256Z,101340.10
2018-08-10T17:50:18.829Z,101345.27
2018-08-10T17:52:49.642Z,101341.87
2018-08-10T17:55:19.631Z,101342.67
2018-08-10T17:57:49.214Z,101341.94
2018-08-10T18:00:21.319Z,101342.73
2018-08-10T18:02:51.486Z,101347.67
2018-08-10T18:05:20.605Z,101348.76
2018-08-10T18:07:50.042Z,101351.05
2018-08-10T18:10:20.116Z,101347.05
2018-08-10T18:12:49.312Z,101345.52
2018-08-10T18:15:20.318Z,101348.09
2018-08-10T18:17:49.975Z,101342.19
2018-08-10T18:20:20.614Z,101349.09
2018-08-10T18:22:51.056Z,101352.19
2018-08-10T18:25:21.686Z,101339.08
2018-08-10T18:27:50.838Z,101342.66
2018-08-10T18:30:24.343Z,101346.67
2018-08-10T18:32:54.023Z,101345.53
2018-08-10T18:35:23.290Z,101350.02
2018-08-10T18:37:52.964Z,101345.25
2018-08-10T18:40:22.441Z,101346.76
2018-08-10T18:42:51.896Z,101350.37
2018-08-10T18:45:21.876Z,101350.49
2018-08-10T18:47:50.974Z,101343.20
2018-08-10T18:50:21.100Z,101351.13
2018-08-10T18:52:50.668Z,101356.45
2018-08-10T18:55:22.194Z,101354.03
2018-08-10T18:57:52.103Z,101353.27
2018-08-10T19:00:25.526Z,101355.11
2018-08-10T19:02:55.195Z,101358.60
2018-08-10T19:05:24.640Z,101355.52
2018-08-10T19:07:53.748Z,101352.55
2018-08-10T19:10:28.900Z,101358.81
2018-08-10T19:12:58.151Z,101358.05
2018-08-10T19:15:27.622Z,101364.64
2018-08-10T19:17:56.946Z,101357.94
2018-08-10T19:20:26.202Z,101364.09
2018-08-10T19:22:55.669Z,101367.61
2018-08-10T19:25:24.982Z,101369.92
2018-08-10T19:27:54.071Z,101376.05
2018-08-10T19:30:24.915Z,101374.28
2018-08-10T19:32:54.271Z,101381.14
2018-08-10T19:35:23.463Z,101390.93
2018-08-10T19:37:52.556Z,101389.05
2018-08-10T19:40:21.731Z,101386.09
2018-08-10T19:42:50.966Z,101392.59
2018-08-10T19:45:20.200Z,101392.59
2018-08-10T19:47:49.365Z,101388.23
2018-08-10T19:50:22.478Z,101394.72
2018-08-10T19:52:52.469Z,101389.95
2018-08-10T19:55:21.475Z,101394.56
2018-08-10T19:57:50.632Z,101397.77
2018-08-10T20:00:20.330Z,101397.98
2018-08-10T20:02:51.025Z,101392.36
2018-08-10T20:05:20.000Z,101396.19
2018-08-10T20:07:49.308Z,101400.69
2018-08-10T20:10:18.745Z,101401.95
2018-08-10T20:12:47.871Z,101401.33
2018-08-10T20:15:18.616Z,101398.77
2018-08-10T20:17:47.694Z,101401.39
2018-08-10T20:20:18.336Z,101403.06
2018-08-10T20:22:48.060Z,101406.88
2018-08-10T20:25:17.674Z,101403.76
2018-08-10T20:27:46.962Z,101404.42
2018-08-10T20:30:18.007Z,101405.27
2018-08-10T20:32:47.942Z,101406.95
2018-08-10T20:35:18.776Z,101405.12
2018-08-10T20:37:48.285Z,101391.89
2018-08-10T20:40:19.079Z,101400.50
2018-08-10T20:42:49.059Z,101399.16
2018-08-10T20:45:19.423Z,101402.80
2018-08-10T20:47:48.722Z,101346.41
2018-08-10T20:50:22.221Z,101394.80
2018-08-10T20:52:52.235Z,101398.50
2018-08-10T20:55:21.770Z,101393.28
2018-08-10T20:57:51.470Z,101393.29
2018-08-10T21:00:20.533Z,101390.44
2018-08-10T21:02:50.082Z,101393.34
2018-08-10T21:05:19.146Z,101392.85
2018-08-10T21:07:48.867Z,101396.08
2018-08-10T21:10:18.341Z,101389.35
2018-08-10T21:12:48.412Z,101387.11
2018-08-10T21:15:17.786Z,101388.45
2018-08-10T21:17:47.754Z,101375.02
2018-08-10T21:20:17.842Z,101379.73
2018-08-10T21:22:47.797Z,101379.09
2018-08-10T21:25:17.173Z,101382.97
2018-08-10T21:27:46.322Z,101378.88
2018-08-10T21:30:17.735Z,101378.88
2018-08-10T21:32:47.578Z,101376.56
2018-08-10T21:35:16.911Z,101374.91
2018-08-10T21:37:46.897Z,101374.04
2018-08-10T21:40:16.122Z,101366.28
2018-08-10T21:42:45.390Z,101364.25
2018-08-10T21:45:14.722Z,101373.48
2018-08-10T21:47:43.796Z,101372.63
2018-08-10T21:50:14.335Z,101371.70
2018-08-10T21:52:44.601Z,101361.23
2018-08-10T21:55:13.766Z,101358.10
2018-08-10T21:57:43.078Z,101360.30
2018-08-10T22:00:45.079Z,101364.29
2018-08-10T22:03:14.651Z,101355.01
2018-08-10T22:05:44.055Z,101359.45
2018-08-10T22:08:13.203Z,101354.08
2018-08-10T22:10:42.274Z,101353.06
2018-08-10T22:13:16.522Z,101355.95
2018-08-10T22:15:51.075Z,101352.08
2018-08-10T22:18:25.494Z,101343.86
2018-08-10T22:20:56.127Z,101351.23
2018-08-10T22:23:26.103Z,101346.71
2018-08-10T22:25:55.638Z,101348.70
2018-08-10T22:28:24.873Z,101349.56
2018-08-10T22:30:54.248Z,101346.67
2018-08-10T22:33:23.382Z,101349.07
2018-08-10T22:35:53.130Z,101351.06
2018-08-10T22:38:22.454Z,101340.66
2018-08-10T22:40:51.519Z,101347.53
2018-08-10T22:43:20.585Z,101356.08
2018-08-10T22:45:49.943Z,101348.22
2018-08-10T22:48:18.882Z,101350.58
2018-08-10T22:50:48.099Z,101349.23
2018-08-10T22:53:17.612Z,101349.23
2018-08-10T22:55:46.702Z,101349.07
2018-08-10T22:58:15.969Z,101356.47
2018-08-10T23:00:45.331Z,101347.41
2018-08-10T23:03:14.264Z,101350.09
2018-08-10T23:05:43.530Z,101349.43
2018-08-10T23:08:12.487Z,101351.46
2018-08-10T23:10:41.489Z,101351.13
2018-08-10T23:13:11.000Z,101346.28
2018-08-10T23:15:40.082Z,101348.80
2018-08-10T23:18:09.175Z,101355.34
2018-08-10T23:20:38.265Z,101356.66
2018-08-10T23:23:07.393Z,101353.48
2018-08-10T23:25:36.651Z,101349.95
2018-08-10T23:28:05.996Z,101351.53
2018-08-10T23:30:35.356Z,101356.73
2018-08-10T23:33:04.894Z,101351.16
2018-08-10T23:35:34.044Z,101357.23
2018-08-10T23:38:04.022Z,101359.25
2018-08-10T23:40:33.070Z,101354.19
2018-08-10T23:43:02.493Z,101353.06
2018-08-10T23:45:31.656Z,101352.73
2018-08-10T23:48:00.790Z,101347.53
2018-08-10T23:50:30.074Z,101348.53
2018-08-10T23:52:59.596Z,101347.20
2018-08-10T23:55:28.882Z,101344.21
2018-08-10T23:57:58.155Z,101334.83
